Time;durP1;ratioP1;P1;durP2;ratioP2;P2;SDS_P1;SDS_P2;PMS_P1;PMS_P2;Temp;Humidity;BMP_temperature;BMP_pressure;BME280_temperature;BME280_humidity;BME280_pressure;Samples;Min_cycle;Max_cycle;Signal;HPM_P1;HPM_P2
2021/08/03 00:04:45;;;;;;;;;21.50;21.25;;;;;;;;8724844;40;10687;-60
2021/08/03 00:10:49;;;;;;;;;22.25;22.25;;;;;;;;8724895;40;10879;-58
2021/08/03 00:16:53;;;;;;;;;24.75;20.75;;;;;;;;8725307;40;10918;-58
2021/08/03 00:22:59;;;;;;;;;21.75;21.25;;;;;;;;8724935;40;10788;-58
2021/08/03 00:29:02;;;;;;;;;23.00;22.75;;;;;;;;8724141;40;10708;-58
2021/08/03 00:35:04;;;;;;;;;21.25;21.25;;;;;;;;8724447;40;10738;-60
2021/08/03 00:41:19;;;;;;;;;21.25;20.25;;;;;;;;8724335;40;11101;-59
2021/08/03 00:47:22;;;;;;;;;25.00;23.50;;;;;;;;8724673;40;11088;-60
2021/08/03 00:53:30;;;;;;;;;19.25;19.25;;;;;;;;8722821;40;10749;-60
2021/08/03 00:59:34;;;;;;;;;25.75;22.00;;;;;;;;8722707;40;10741;-58
2021/08/03 01:06:06;;;;;;;;;26.75;23.00;;;;;;;;8722684;40;10756;-59
2021/08/03 01:12:22;;;;;;;;;21.75;18.75;;;;;;;;8711722;40;10662;-59
2021/08/03 01:18:58;;;;;;;;;17.50;17.50;;;;;;;;8722462;40;10877;-59
2021/08/03 01:25:14;;;;;;;;;19.75;17.75;;;;;;;;8723413;40;10815;-60
2021/08/03 01:31:26;;;;;;;;;19.50;18.75;;;;;;;;8722342;40;10830;-59
2021/08/03 01:37:33;;;;;;;;;18.25;15.75;;;;;;;;8721883;40;10878;-59
2021/08/03 01:43:41;;;;;;;;;23.25;20.50;;;;;;;;8722317;40;10689;-59
2021/08/03 01:49:46;;;;;;;;;17.25;16.75;;;;;;;;8722359;40;10684;-59
2021/08/03 01:55:53;;;;;;;;;16.25;15.25;;;;;;;;8724580;40;10507;-59
2021/08/03 02:01:56;;;;;;;;;19.75;18.25;;;;;;;;8729958;40;10573;-59
2021/08/03 02:08:00;;;;;;;;;19.00;18.00;;;;;;;;8722163;40;10955;-59
2021/08/03 02:14:05;;;;;;;;;17.00;17.00;;;;;;;;8721788;40;10634;-59
2021/08/03 02:20:13;;;;;;;;;15.25;15.25;;;;;;;;8722706;40;10735;-60
2021/08/03 02:26:22;;;;;;;;;20.25;15.25;;;;;;;;8721511;40;11248;-59
2021/08/03 02:32:30;;;;;;;;;15.50;15.50;;;;;;;;8722899;40;10961;-58
2021/08/03 02:38:37;;;;;;;;;16.25;16.25;;;;;;;;8722580;40;11883;-59
2021/08/03 02:44:41;;;;;;;;;15.00;15.00;;;;;;;;8721249;40;10950;-60
2021/08/03 02:50:45;;;;;;;;;18.25;16.00;;;;;;;;8722453;40;10731;-59
2021/08/03 02:56:51;;;;;;;;;19.25;19.00;;;;;;;;8722441;40;10728;-60
2021/08/03 03:02:55;;;;;;;;;18.75;18.75;;;;;;;;8721328;40;10854;-59
2021/08/03 03:09:01;;;;;;;;;16.50;16.50;;;;;;;;8720999;40;10609;-59
2021/08/03 03:15:06;;;;;;;;;18.50;16.00;;;;;;;;8730045;40;10677;-59
2021/08/03 03:21:09;;;;;;;;;20.00;16.25;;;;;;;;8721909;40;11537;-59
2021/08/03 03:27:13;;;;;;;;;18.00;18.00;;;;;;;;8721459;40;10953;-59
2021/08/03 03:33:17;;;;;;;;;16.50;16.00;;;;;;;;8720143;40;10969;-60
2021/08/03 03:39:21;;;;;;;;;21.25;18.00;;;;;;;;8721474;40;10801;-58
2021/08/03 03:45:29;;;;;;;;;20.00;17.00;;;;;;;;8724462;40;10717;-58
2021/08/03 03:51:37;;;;;;;;;20.00;18.25;;;;;;;;8725863;40;10662;-59
2021/08/03 03:57:42;;;;;;;;;18.25;15.50;;;;;;;;8724816;40;10768;-59
2021/08/03 04:03:45;;;;;;;;;18.00;16.50;;;;;;;;9745833;23;11203;-60
2021/08/03 04:09:48;;;;;;;;;15.00;15.00;;;;;;;;8752241;40;10544;-60
2021/08/03 04:15:50;;;;;;;;;18.75;16.25;;;;;;;;8752885;40;11133;-60
2021/08/03 04:21:55;;;;;;;;;15.00;15.00;;;;;;;;8752067;40;11146;-60
2021/08/03 04:27:57;;;;;;;;;14.50;14.50;;;;;;;;8753000;40;10599;-60
2021/08/03 04:33:59;;;;;;;;;18.75;17.75;;;;;;;;8752319;40;11358;-60
2021/08/03 04:40:02;;;;;;;;;17.50;15.50;;;;;;;;8752429;40;10490;-59
2021/08/03 04:46:06;;;;;;;;;14.50;14.50;;;;;;;;8752668;40;10524;-60
2021/08/03 04:52:08;;;;;;;;;12.25;10.75;;;;;;;;8751162;40;11113;-60
2021/08/03 04:58:10;;;;;;;;;15.25;15.00;;;;;;;;8751750;40;11045;-60
2021/08/03 05:04:12;;;;;;;;;14.00;14.00;;;;;;;;8751883;40;10494;-59
2021/08/03 05:10:14;;;;;;;;;12.50;12.25;;;;;;;;8751322;40;10520;-60
2021/08/03 05:16:16;;;;;;;;;16.25;15.50;;;;;;;;8752055;40;10547;-58
2021/08/03 05:22:18;;;;;;;;;15.00;12.75;;;;;;;;8751375;40;10514;-58
2021/08/03 05:28:21;;;;;;;;;15.75;14.75;;;;;;;;8744822;40;10544;-57
2021/08/03 05:34:24;;;;;;;;;17.50;16.00;;;;;;;;8751550;40;10846;-58
2021/08/03 05:40:26;;;;;;;;;16.50;14.50;;;;;;;;8751448;40;10745;-59
2021/08/03 05:46:28;;;;;;;;;11.00;11.00;;;;;;;;8751467;40;10547;-57
2021/08/03 05:52:31;;;;;;;;;13.50;13.25;;;;;;;;8750885;40;10718;-57
2021/08/03 05:58:33;;;;;;;;;14.00;13.75;;;;;;;;8750519;40;10478;-58
2021/08/03 06:04:35;;;;;;;;;13.75;12.75;;;;;;;;8764819;40;10591;-58
2021/08/03 06:10:38;;;;;;;;;13.75;13.25;;;;;;;;8750129;40;10527;-59
2021/08/03 06:16:40;;;;;;;;;15.00;12.75;;;;;;;;8750580;40;10570;-58
2021/08/03 06:22:42;;;;;;;;;13.50;13.25;;;;;;;;8754472;40;11055;-58
2021/08/03 06:28:50;;;;;;;;;13.50;13.50;;;;;;;;8749812;40;10610;-58
2021/08/03 06:34:53;;;;;;;;;11.75;11.50;;;;;;;;8749859;40;11222;-58
2021/08/03 06:40:55;;;;;;;;;13.50;12.00;;;;;;;;8747119;40;11634;-59
2021/08/03 06:46:59;;;;;;;;;13.75;13.50;;;;;;;;8748937;40;10429;-59
2021/08/03 06:53:05;;;;;;;;;12.50;11.25;;;;;;;;8742003;40;10933;-59
2021/08/03 06:59:10;;;;;;;;;11.50;11.50;;;;;;;;8721860;40;10464;-58
2021/08/03 07:05:16;;;;;;;;;9.00;9.00;;;;;;;;8722924;40;11309;-59
2021/08/03 07:11:20;;;;;;;;;13.00;13.00;;;;;;;;8739516;40;10486;-59
2021/08/03 07:17:25;;;;;;;;;11.75;11.75;;;;;;;;8749696;40;10450;-58
2021/08/03 07:23:28;;;;;;;;;10.00;10.00;;;;;;;;8747688;40;10543;-58
2021/08/03 07:29:30;;;;;;;;;13.25;13.25;;;;;;;;8749164;40;10569;-59
2021/08/03 07:35:32;;;;;;;;;6.75;4.75;;;;;;;;8750287;40;10495;-59
2021/08/03 07:41:36;;;;;;;;;11.00;8.00;;;;;;;;8750826;40;10452;-59
2021/08/03 07:47:38;;;;;;;;;12.25;11.00;;;;;;;;8749703;40;10578;-59
2021/08/03 07:53:40;;;;;;;;;10.25;10.25;;;;;;;;8747058;40;10553;-59
2021/08/03 07:59:43;;;;;;;;;13.25;12.00;;;;;;;;8749139;40;10454;-59
2021/08/03 08:05:45;;;;;;;;;10.50;10.00;;;;;;;;8731283;40;10485;-58
2021/08/03 08:11:47;;;;;;;;;12.00;11.00;;;;;;;;8748324;40;10510;-59
2021/08/03 08:17:49;;;;;;;;;9.00;9.00;;;;;;;;8741802;40;11027;-57
2021/08/03 08:23:52;;;;;;;;;14.75;11.25;;;;;;;;8738053;40;10708;-57
2021/08/03 08:29:54;;;;;;;;;14.25;10.25;;;;;;;;8749164;40;10413;-58
2021/08/03 08:35:56;;;;;;;;;11.00;11.00;;;;;;;;8746471;40;10860;-58
2021/08/03 08:41:58;;;;;;;;;12.50;11.25;;;;;;;;8745497;40;10706;-58
2021/08/03 08:48:03;;;;;;;;;15.50;14.50;;;;;;;;8739163;40;10501;-59
2021/08/03 08:54:05;;;;;;;;;10.25;9.00;;;;;;;;8744197;40;10438;-58
2021/08/03 09:00:09;;;;;;;;;11.00;9.00;;;;;;;;8738765;40;10504;-58
2021/08/03 09:06:11;;;;;;;;;13.50;12.50;;;;;;;;8740002;40;11021;-58
2021/08/03 09:12:13;;;;;;;;;9.50;9.50;;;;;;;;8743215;40;10899;-58
2021/08/03 09:18:28;;;;;;;;;12.00;11.25;;;;;;;;8744488;40;10437;-57
2021/08/03 09:24:30;;;;;;;;;15.00;14.00;;;;;;;;8735711;40;10543;-57
2021/08/03 09:30:35;;;;;;;;;14.00;11.25;;;;;;;;8745205;40;10406;-59
2021/08/03 09:36:55;;;;;;;;;13.25;13.25;;;;;;;;8740927;40;10553;-57
2021/08/03 09:42:59;;;;;;;;;9.50;9.50;;;;;;;;8737455;40;10416;-58
2021/08/03 09:49:01;;;;;;;;;12.00;12.00;;;;;;;;8749202;40;10466;-58
2021/08/03 09:55:09;;;;;;;;;11.25;10.25;;;;;;;;8748190;40;10532;-59
2021/08/03 10:01:21;;;;;;;;;11.00;11.00;;;;;;;;8740405;40;10477;-57
2021/08/03 10:07:24;;;;;;;;;9.75;9.75;;;;;;;;8721916;40;10522;-59
2021/08/03 10:13:26;;;;;;;;;14.75;14.75;;;;;;;;8740320;40;10727;-57
2021/08/03 10:19:33;;;;;;;;;10.50;10.50;;;;;;;;8745490;40;10491;-60
2021/08/03 10:25:40;;;;;;;;;13.00;11.00;;;;;;;;8744298;40;10718;-58
2021/08/03 10:31:42;;;;;;;;;10.25;10.25;;;;;;;;8742719;40;10694;-58
2021/08/03 10:38:00;;;;;;;;;14.75;14.00;;;;;;;;8745621;40;10707;-59
2021/08/03 10:44:44;;;;;;;;;14.00;14.00;;;;;;;;8746502;40;10600;-59
2021/08/03 10:50:47;;;;;;;;;10.75;10.75;;;;;;;;8745933;40;10628;-57
2021/08/03 10:57:10;;;;;;;;;11.25;11.25;;;;;;;;8745312;40;10534;-59
2021/08/03 11:03:30;;;;;;;;;11.75;11.75;;;;;;;;8737913;40;10540;-58
2021/08/03 11:09:33;;;;;;;;;10.75;10.75;;;;;;;;8748494;40;10516;-58
2021/08/03 11:15:36;;;;;;;;;12.50;12.50;;;;;;;;8724263;40;10491;-58
2021/08/03 11:21:44;;;;;;;;;13.25;13.00;;;;;;;;8723853;40;10582;-59
2021/08/03 11:27:47;;;;;;;;;16.25;12.25;;;;;;;;8726818;40;10528;-58
2021/08/03 11:33:56;;;;;;;;;19.25;17.00;;;;;;;;8748096;40;10528;-58
2021/08/03 11:39:59;;;;;;;;;15.75;14.00;;;;;;;;8746656;40;10542;-58
2021/08/03 11:46:01;;;;;;;;;14.50;11.75;;;;;;;;8737267;40;11056;-59
2021/08/03 11:52:08;;;;;;;;;21.25;20.25;;;;;;;;8745751;40;10501;-57
2021/08/03 11:58:11;;;;;;;;;22.50;20.75;;;;;;;;8747587;40;11266;-58
2021/08/03 12:04:17;;;;;;;;;15.50;14.25;;;;;;;;8747027;40;10581;-58
2021/08/03 12:10:22;;;;;;;;;13.00;13.00;;;;;;;;8747223;40;10868;-57
2021/08/03 12:16:32;;;;;;;;;17.25;16.25;;;;;;;;8747278;40;10522;-59
2021/08/03 12:22:34;;;;;;;;;19.00;19.00;;;;;;;;8747497;40;10622;-57
2021/08/03 12:28:45;;;;;;;;;19.75;19.50;;;;;;;;8747677;40;10561;-57
2021/08/03 12:34:47;;;;;;;;;18.75;17.00;;;;;;;;8746014;40;10438;-58
2021/08/03 12:40:50;;;;;;;;;16.00;14.25;;;;;;;;8746421;40;10577;-58
2021/08/03 12:46:52;;;;;;;;;15.50;13.00;;;;;;;;8747189;40;10653;-58
2021/08/03 12:52:58;;;;;;;;;14.75;14.75;;;;;;;;8746860;40;10659;-58
2021/08/03 12:59:00;;;;;;;;;20.25;16.50;;;;;;;;8735313;40;10602;-58
2021/08/03 13:05:02;;;;;;;;;22.50;18.75;;;;;;;;8723489;40;10591;-58
2021/08/03 13:11:05;;;;;;;;;22.25;21.25;;;;;;;;8725892;40;10612;-58
2021/08/03 13:17:09;;;;;;;;;22.25;21.25;;;;;;;;8745486;40;10594;-57
2021/08/03 13:23:11;;;;;;;;;22.50;22.50;;;;;;;;8747978;40;10599;-57
2021/08/03 13:29:14;;;;;;;;;14.50;14.50;;;;;;;;8746633;40;11083;-58
2021/08/03 13:35:18;;;;;;;;;16.25;16.25;;;;;;;;8736882;40;10806;-58
2021/08/03 13:41:20;;;;;;;;;15.25;15.00;;;;;;;;8723275;40;10551;-58
2021/08/03 13:47:22;;;;;;;;;22.00;21.00;;;;;;;;8721759;40;10592;-57
2021/08/03 13:53:25;;;;;;;;;20.00;18.50;;;;;;;;8723292;40;10582;-57
2021/08/03 13:59:27;;;;;;;;;17.25;16.25;;;;;;;;8731068;40;10510;-59
2021/08/03 14:05:29;;;;;;;;;15.25;15.25;;;;;;;;8726313;40;10766;-59
2021/08/03 14:11:31;;;;;;;;;16.25;14.50;;;;;;;;8723038;40;10560;-61
2021/08/03 14:17:33;;;;;;;;;15.25;14.00;;;;;;;;8724630;40;10579;-60
2021/08/03 14:23:36;;;;;;;;;13.25;11.50;;;;;;;;8723819;40;10706;-59
2021/08/03 14:29:38;;;;;;;;;16.50;14.75;;;;;;;;8729150;40;10551;-60
2021/08/03 14:35:40;;;;;;;;;14.50;14.50;;;;;;;;8748143;40;10404;-60
2021/08/03 14:41:42;;;;;;;;;13.50;13.00;;;;;;;;8747338;40;10735;-59
2021/08/03 14:47:44;;;;;;;;;13.75;13.00;;;;;;;;8748837;40;10769;-60
2021/08/03 14:53:48;;;;;;;;;11.00;11.00;;;;;;;;8747694;40;10515;-60
2021/08/03 14:59:51;;;;;;;;;14.00;13.00;;;;;;;;8748065;40;10468;-60
2021/08/03 15:05:53;;;;;;;;;12.75;11.00;;;;;;;;8746203;40;10408;-61
2021/08/03 15:11:55;;;;;;;;;16.00;13.00;;;;;;;;8746469;40;10520;-60
2021/08/03 15:17:57;;;;;;;;;13.50;11.00;;;;;;;;8747597;40;10533;-60
2021/08/03 15:24:01;;;;;;;;;9.00;8.75;;;;;;;;8747780;40;10419;-60
2021/08/03 15:30:03;;;;;;;;;10.50;9.00;;;;;;;;8733345;40;10402;-60
2021/08/03 15:36:05;;;;;;;;;9.00;9.00;;;;;;;;8747562;40;10428;-60
2021/08/03 15:42:08;;;;;;;;;8.75;8.75;;;;;;;;8751104;40;10437;-60
2021/08/03 15:48:10;;;;;;;;;11.75;7.25;;;;;;;;8750821;40;10704;-59
2021/08/03 15:54:12;;;;;;;;;12.25;12.25;;;;;;;;8750612;40;10538;-59
2021/08/03 16:00:14;;;;;;;;;13.25;13.00;;;;;;;;8749503;40;10628;-60
2021/08/03 16:06:16;;;;;;;;;10.75;10.75;;;;;;;;8751209;40;10567;-62
2021/08/03 16:12:19;;;;;;;;;13.25;12.25;;;;;;;;8749945;40;10524;-60
2021/08/03 16:18:25;;;;;;;;;11.50;11.50;;;;;;;;8750915;40;10503;-61
2021/08/03 16:24:28;;;;;;;;;10.25;9.25;;;;;;;;8750411;40;10691;-61
2021/08/03 16:30:31;;;;;;;;;10.50;10.50;;;;;;;;8751458;40;11036;-60
2021/08/03 16:36:33;;;;;;;;;10.50;10.50;;;;;;;;8750220;40;10729;-60
2021/08/03 16:42:38;;;;;;;;;12.50;12.50;;;;;;;;8749819;40;10449;-60
2021/08/03 16:48:41;;;;;;;;;11.75;10.75;;;;;;;;8749702;40;11016;-61
2021/08/03 16:54:43;;;;;;;;;13.25;13.25;;;;;;;;8750243;40;10918;-60
2021/08/03 17:01:10;;;;;;;;;13.50;13.00;;;;;;;;8750502;40;10691;-60
2021/08/03 17:07:28;;;;;;;;;14.50;14.50;;;;;;;;8749249;40;10944;-61
2021/08/03 17:13:46;;;;;;;;;13.25;12.25;;;;;;;;8749740;40;10467;-60
2021/08/03 17:19:55;;;;;;;;;12.00;12.00;;;;;;;;8750461;40;10576;-60
2021/08/03 17:25:58;;;;;;;;;13.50;11.25;;;;;;;;8750015;40;10776;-60
2021/08/03 17:32:01;;;;;;;;;15.25;13.50;;;;;;;;8749279;40;10530;-60
2021/08/03 17:38:07;;;;;;;;;12.75;12.75;;;;;;;;8748148;40;10592;-60
2021/08/03 17:44:09;;;;;;;;;16.50;14.25;;;;;;;;8747919;40;10651;-61
2021/08/03 17:50:12;;;;;;;;;13.75;13.75;;;;;;;;8747987;40;10697;-60
2021/08/03 17:56:16;;;;;;;;;13.00;13.00;;;;;;;;8737829;40;10567;-61
2021/08/03 18:02:19;;;;;;;;;14.75;14.75;;;;;;;;8745652;40;10695;-60
2021/08/03 18:08:22;;;;;;;;;17.50;14.75;;;;;;;;8747514;40;10773;-60
2021/08/03 18:14:25;;;;;;;;;9.75;9.75;;;;;;;;8747928;40;10471;-59
2021/08/03 18:20:28;;;;;;;;;16.25;13.50;;;;;;;;8748451;40;10696;-60
2021/08/03 18:26:33;;;;;;;;;16.00;16.00;;;;;;;;8746976;40;10609;-60
2021/08/03 18:32:46;;;;;;;;;11.50;9.75;;;;;;;;8748092;40;10631;-60
2021/08/03 18:38:52;;;;;;;;;15.50;14.25;;;;;;;;8747026;40;10711;-60
2021/08/03 18:44:58;;;;;;;;;15.00;15.00;;;;;;;;8746564;40;10533;-60
2021/08/03 18:51:00;;;;;;;;;17.50;17.25;;;;;;;;8745415;40;10961;-59
2021/08/03 18:57:06;;;;;;;;;12.00;12.00;;;;;;;;8747288;40;10728;-59
2021/08/03 19:03:09;;;;;;;;;18.25;17.50;;;;;;;;8746519;40;10827;-60
2021/08/03 19:09:13;;;;;;;;;17.50;17.00;;;;;;;;8747157;40;10504;-60
2021/08/03 19:15:16;;;;;;;;;22.00;20.50;;;;;;;;8750560;40;10657;-60
2021/08/03 19:21:20;;;;;;;;;21.25;21.00;;;;;;;;8750741;40;10714;-62
2021/08/03 19:27:24;;;;;;;;;17.00;17.00;;;;;;;;8749712;40;10618;-59
2021/08/03 19:33:27;;;;;;;;;18.25;17.50;;;;;;;;8750016;40;11470;-60
2021/08/03 19:39:33;;;;;;;;;18.00;17.50;;;;;;;;8749971;40;10635;-60
2021/08/03 19:45:35;;;;;;;;;19.00;17.50;;;;;;;;8749570;40;10582;-61
2021/08/03 19:51:38;;;;;;;;;21.75;19.25;;;;;;;;8749790;40;10803;-59
2021/08/03 19:57:41;;;;;;;;;19.25;19.25;;;;;;;;8750078;40;10743;-59
2021/08/03 20:03:45;;;;;;;;;18.00;17.00;;;;;;;;8750537;40;11268;-60
2021/08/03 20:09:48;;;;;;;;;22.50;20.00;;;;;;;;8751312;40;10900;-60
2021/08/03 20:15:56;;;;;;;;;18.75;17.50;;;;;;;;8750560;40;10740;-60
2021/08/03 20:21:58;;;;;;;;;21.25;19.25;;;;;;;;8750615;40;11228;-60
2021/08/03 20:28:03;;;;;;;;;18.75;18.75;;;;;;;;8750180;40;10637;-60
2021/08/03 20:34:08;;;;;;;;;18.25;17.75;;;;;;;;8750102;40;10590;-60
2021/08/03 20:40:11;;;;;;;;;21.25;18.50;;;;;;;;8748428;40;11457;-59
2021/08/03 20:46:14;;;;;;;;;19.25;18.00;;;;;;;;8748418;40;10696;-60
2021/08/03 20:52:17;;;;;;;;;19.75;18.75;;;;;;;;8748724;40;10625;-59
2021/08/03 20:58:21;;;;;;;;;21.75;21.00;;;;;;;;8746907;40;10799;-60
2021/08/03 21:04:24;;;;;;;;;19.00;19.00;;;;;;;;8749642;40;11069;-59
2021/08/03 21:10:27;;;;;;;;;22.25;18.25;;;;;;;;8747860;40;10732;-59
2021/08/03 21:16:30;;;;;;;;;22.50;18.00;;;;;;;;8748039;40;10936;-60
2021/08/03 21:22:50;;;;;;;;;17.25;16.25;;;;;;;;8748136;40;10733;-60
2021/08/03 21:29:11;;;;;;;;;18.00;17.25;;;;;;;;8747879;40;10704;-60
2021/08/03 21:35:34;;;;;;;;;15.75;15.75;;;;;;;;8748378;40;10705;-60
2021/08/03 21:41:54;;;;;;;;;18.50;18.50;;;;;;;;8747536;40;10898;-58
2021/08/03 21:48:15;;;;;;;;;19.00;18.75;;;;;;;;8747718;40;11373;-61
2021/08/03 21:54:36;;;;;;;;;18.25;17.50;;;;;;;;8746745;40;10876;-59
2021/08/03 22:00:38;;;;;;;;;21.75;21.00;;;;;;;;8747366;40;12371;-59
2021/08/03 22:06:41;;;;;;;;;24.50;20.75;;;;;;;;8748003;40;11046;-59
2021/08/03 22:12:43;;;;;;;;;21.75;21.50;;;;;;;;8747166;40;11034;-59
2021/08/03 22:18:46;;;;;;;;;24.00;22.50;;;;;;;;8746221;40;10802;-60
2021/08/03 22:24:48;;;;;;;;;23.50;20.00;;;;;;;;8746703;40;11080;-60
2021/08/03 22:30:50;;;;;;;;;23.75;21.75;;;;;;;;8746705;40;10977;-60
2021/08/03 22:36:52;;;;;;;;;25.25;25.00;;;;;;;;8748219;40;10907;-60
2021/08/03 22:42:54;;;;;;;;;23.25;22.00;;;;;;;;8746913;40;11163;-60
2021/08/03 22:48:56;;;;;;;;;28.25;22.50;;;;;;;;8748551;40;10933;-60
2021/08/03 22:54:59;;;;;;;;;22.25;21.75;;;;;;;;8750302;40;11017;-60
2021/08/03 23:01:01;;;;;;;;;26.00;26.00;;;;;;;;8750716;40;10513;-60
2021/08/03 23:07:05;;;;;;;;;24.25;19.75;;;;;;;;8751248;40;10910;-60
2021/08/03 23:13:07;;;;;;;;;32.00;26.00;;;;;;;;8749906;40;11581;-60
2021/08/03 23:19:10;;;;;;;;;25.25;22.75;;;;;;;;8750136;40;11718;-58
2021/08/03 23:25:12;;;;;;;;;27.50;27.00;;;;;;;;8749909;40;11386;-59
2021/08/03 23:31:14;;;;;;;;;26.00;24.00;;;;;;;;8750463;40;10933;-60
2021/08/03 23:37:17;;;;;;;;;25.50;25.00;;;;;;;;8749565;40;10881;-59
2021/08/03 23:43:19;;;;;;;;;28.75;25.75;;;;;;;;8750317;40;11035;-60
2021/08/03 23:49:21;;;;;;;;;25.67;22.67;;;;;;;;8748852;40;10645;-59
2021/08/03 23:55:26;;;;;;;;;22.00;22.00;;;;;;;;8748784;40;10921;-60
